sensor_id;sensor_type;location;lat;lon;timestamp;pressure;altitude;pressure_sealevel;temperature;humidity
77079;BME280;66004;55.096;38.760;2023-06-01T03:28:18;99810.34;;;11.82;59.75
77079;BME280;66004;55.096;38.760;2023-06-01T03:30:43;99812.25;;;11.90;59.77
77079;BME280;66004;55.096;38.760;2023-06-01T03:33:08;99804.13;;;11.88;59.51
77079;BME280;66004;55.096;38.760;2023-06-01T03:35:35;99819.75;;;11.98;59.55
77079;BME280;66004;55.096;38.760;2023-06-01T03:38:00;99822.31;;;12.03;59.86
77079;BME280;66004;55.096;38.760;2023-06-01T03:40:26;99818.56;;;12.12;59.79
77079;BME280;66004;55.096;38.760;2023-06-01T03:42:51;99790.94;;;12.05;59.39
77079;BME280;66004;55.096;38.760;2023-06-01T03:45:16;99813.53;;;12.33;59.01
77079;BME280;66004;55.096;38.760;2023-06-01T03:47:42;99811.03;;;12.44;58.81
77079;BME280;66004;55.096;38.760;2023-06-01T03:50:08;99814.63;;;12.57;58.96
77079;BME280;66004;55.096;38.760;2023-06-01T03:52:35;99817.00;;;12.83;58.42
77079;BME280;66004;55.096;38.760;2023-06-01T03:55:04;99810.69;;;13.66;57.00
77079;BME280;66004;55.096;38.760;2023-06-01T03:57:36;99810.38;;;14.61;54.44
77079;BME280;66004;55.096;38.760;2023-06-01T04:00:06;99802.03;;;15.34;53.01
77079;BME280;66004;55.096;38.760;2023-06-01T04:02:46;99812.25;;;16.15;51.65
77079;BME280;66004;55.096;38.760;2023-06-01T04:05:13;99819.25;;;16.55;50.28
77079;BME280;66004;55.096;38.760;2023-06-01T04:07:45;99808.75;;;16.59;50.09
77079;BME280;66004;55.096;38.760;2023-06-01T04:10:12;99793.44;;;16.67;50.19
77079;BME280;66004;55.096;38.760;2023-06-01T04:12:40;99809.06;;;16.50;50.69
77079;BME280;66004;55.096;38.760;2023-06-01T04:15:07;99793.56;;;16.14;51.43
77079;BME280;66004;55.096;38.760;2023-06-01T04:17:35;99802.22;;;15.94;51.98
77079;BME280;66004;55.096;38.760;2023-06-01T04:20:01;99797.09;;;15.77;52.35
77079;BME280;66004;55.096;38.760;2023-06-01T04:22:27;99795.22;;;15.62;52.35
77079;BME280;66004;55.096;38.760;2023-06-01T04:24:52;99798.47;;;15.64;52.27
77079;BME280;66004;55.096;38.760;2023-06-01T04:27:18;99808.59;;;15.65;51.91
77079;BME280;66004;55.096;38.760;2023-06-01T04:29:43;99806.63;;;15.69;51.70
77079;BME280;66004;55.096;38.760;2023-06-01T04:32:09;99781.47;;;15.64;51.81
77079;BME280;66004;55.096;38.760;2023-06-01T04:34:37;99803.75;;;15.88;51.18
77079;BME280;66004;55.096;38.760;2023-06-01T04:37:03;99805.09;;;15.98;51.07
77079;BME280;66004;55.096;38.760;2023-06-01T04:39:30;99804.38;;;16.05;50.62
77079;BME280;66004;55.096;38.760;2023-06-01T04:41:55;99801.22;;;16.10;51.02
77079;BME280;66004;55.096;38.760;2023-06-01T04:44:22;99790.19;;;16.05;50.69
77079;BME280;66004;55.096;38.760;2023-06-01T04:46:48;99807.75;;;16.14;50.62
77079;BME280;66004;55.096;38.760;2023-06-01T04:49:15;99817.66;;;16.27;50.46
77079;BME280;66004;55.096;38.760;2023-06-01T04:51:41;99808.44;;;16.34;50.29
77079;BME280;66004;55.096;38.760;2023-06-01T04:54:07;99807.13;;;16.58;49.77
77079;BME280;66004;55.096;38.760;2023-06-01T04:56:32;99799.22;;;16.78;49.92
77079;BME280;66004;55.096;38.760;2023-06-01T04:58:58;99809.03;;;16.81;49.60
77079;BME280;66004;55.096;38.760;2023-06-01T05:01:24;99791.47;;;16.71;49.26
77079;BME280;66004;55.096;38.760;2023-06-01T05:03:52;99815.66;;;16.92;49.37
77079;BME280;66004;55.096;38.760;2023-06-01T05:06:19;99816.53;;;16.96;49.31
77079;BME280;66004;55.096;38.760;2023-06-01T05:08:45;99809.91;;;16.85;49.75
77079;BME280;66004;55.096;38.760;2023-06-01T05:11:11;99806.72;;;16.90;49.64
77079;BME280;66004;55.096;38.760;2023-06-01T05:13:37;99815.75;;;16.99;49.25
77079;BME280;66004;55.096;38.760;2023-06-01T05:16:04;99813.38;;;17.05;49.05
77079;BME280;66004;55.096;38.760;2023-06-01T05:18:31;99811.84;;;17.15;49.00
77079;BME280;66004;55.096;38.760;2023-06-01T05:20:56;99803.88;;;17.31;48.32
77079;BME280;66004;55.096;38.760;2023-06-01T05:23:23;99801.50;;;17.37;47.90
77079;BME280;66004;55.096;38.760;2023-06-01T05:25:49;99804.00;;;17.45;47.76
77079;BME280;66004;55.096;38.760;2023-06-01T05:28:14;99809.25;;;17.43;48.33
77079;BME280;66004;55.096;38.760;2023-06-01T05:30:40;99816.63;;;17.51;48.09
77079;BME280;66004;55.096;38.760;2023-06-01T05:33:06;99817.06;;;17.54;48.30
77079;BME280;66004;55.096;38.760;2023-06-01T05:35:31;99806.91;;;17.52;47.94
77079;BME280;66004;55.096;38.760;2023-06-01T05:37:57;99817.97;;;17.65;47.88
77079;BME280;66004;55.096;38.760;2023-06-01T05:40:22;99812.34;;;17.72;47.30
77079;BME280;66004;55.096;38.760;2023-06-01T05:42:47;99814.03;;;17.77;47.27
77079;BME280;66004;55.096;38.760;2023-06-01T05:45:13;99801.03;;;17.79;46.81
77079;BME280;66004;55.096;38.760;2023-06-01T05:47:39;99803.09;;;17.82;46.93
77079;BME280;66004;55.096;38.760;2023-06-01T05:50:06;99801.56;;;17.96;46.50
77079;BME280;66004;55.096;38.760;2023-06-01T05:52:32;99789.00;;;18.04;46.64
77079;BME280;66004;55.096;38.760;2023-06-01T05:54:57;99797.28;;;18.23;46.14
77079;BME280;66004;55.096;38.760;2023-06-01T05:57:23;99792.81;;;18.26;46.15
77079;BME280;66004;55.096;38.760;2023-06-01T05:59:48;99801.38;;;18.29;46.09
77079;BME280;66004;55.096;38.760;2023-06-01T06:02:14;99794.16;;;18.50;46.07
77079;BME280;66004;55.096;38.760;2023-06-01T06:04:40;99801.56;;;18.73;45.40
77079;BME280;66004;55.096;38.760;2023-06-01T06:07:05;99786.09;;;18.77;44.80
77079;BME280;66004;55.096;38.760;2023-06-01T06:09:31;99786.06;;;18.74;44.46
77079;BME280;66004;55.096;38.760;2023-06-01T06:11:57;99795.88;;;18.76;44.42
77079;BME280;66004;55.096;38.760;2023-06-01T06:14:22;99784.53;;;18.94;44.10
77079;BME280;66004;55.096;38.760;2023-06-01T06:16:48;99792.72;;;19.17;43.16
77079;BME280;66004;55.096;38.760;2023-06-01T06:19:14;99787.84;;;19.29;42.45
77079;BME280;66004;55.096;38.760;2023-06-01T06:21:41;99776.03;;;19.23;42.15
77079;BME280;66004;55.096;38.760;2023-06-01T06:24:07;99784.59;;;19.37;41.94
77079;BME280;66004;55.096;38.760;2023-06-01T06:26:33;99773.19;;;19.48;41.52
77079;BME280;66004;55.096;38.760;2023-06-01T06:28:58;99785.03;;;19.61;41.30
77079;BME280;66004;55.096;38.760;2023-06-01T06:31:24;99789.09;;;19.63;40.86
77079;BME280;66004;55.096;38.760;2023-06-01T06:33:49;99782.19;;;19.75;40.83
77079;BME280;66004;55.096;38.760;2023-06-01T06:36:15;99778.03;;;20.16;39.19
77079;BME280;66004;55.096;38.760;2023-06-01T06:38:41;99782.00;;;20.47;38.57
77079;BME280;66004;55.096;38.760;2023-06-01T06:41:06;99772.00;;;20.91;37.65
77079;BME280;66004;55.096;38.760;2023-06-01T06:43:32;99769.31;;;21.29;36.68
77079;BME280;66004;55.096;38.760;2023-06-01T06:45:57;99773.69;;;21.48;36.46
77079;BME280;66004;55.096;38.760;2023-06-01T06:48:23;99772.81;;;21.55;35.87
77079;BME280;66004;55.096;38.760;2023-06-01T06:50:48;99752.84;;;21.48;36.14
77079;BME280;66004;55.096;38.760;2023-06-01T06:53:14;99774.81;;;21.58;36.04
77079;BME280;66004;55.096;38.760;2023-06-01T06:55:39;99775.50;;;21.73;35.67
77079;BME280;66004;55.096;38.760;2023-06-01T06:58:08;99766.53;;;21.71;35.58
77079;BME280;66004;55.096;38.760;2023-06-01T07:00:36;99767.28;;;21.78;35.10
77079;BME280;66004;55.096;38.760;2023-06-01T07:03:01;99752.13;;;21.82;35.10
77079;BME280;66004;55.096;38.760;2023-06-01T07:05:27;99765.56;;;21.85;35.30
77079;BME280;66004;55.096;38.760;2023-06-01T07:07:52;99766.41;;;21.85;34.78
77079;BME280;66004;55.096;38.760;2023-06-01T07:10:18;99772.16;;;21.82;35.23
77079;BME280;66004;55.096;38.760;2023-06-01T07:12:43;99763.19;;;21.80;35.76
77079;BME280;66004;55.096;38.760;2023-06-01T07:15:10;99762.19;;;21.97;35.35
77079;BME280;66004;55.096;38.760;2023-06-01T07:17:35;99766.16;;;22.07;35.03
77079;BME280;66004;55.096;38.760;2023-06-01T07:20:02;99770.47;;;21.88;34.45
77079;BME280;66004;55.096;38.760;2023-06-01T07:22:32;99763.31;;;21.65;35.42
77079;BME280;66004;55.096;38.760;2023-06-01T07:24:57;99757.75;;;21.44;35.59
77079;BME280;66004;55.096;38.760;2023-06-01T07:27:23;99759.41;;;21.37;35.68
77079;BME280;66004;55.096;38.760;2023-06-01T07:29:48;99752.91;;;21.33;35.79
77079;BME280;66004;55.096;38.760;2023-06-01T07:32:23;99750.44;;;21.35;35.73
77079;BME280;66004;55.096;38.760;2023-06-01T07:34:48;99762.78;;;21.29;35.67
77079;BME280;66004;55.096;38.760;2023-06-01T07:37:14;99748.19;;;21.12;35.95
77079;BME280;66004;55.096;38.760;2023-06-01T07:39:40;99744.84;;;21.21;35.59
77079;BME280;66004;55.096;38.760;2023-06-01T07:42:06;99746.41;;;21.29;35.38
77079;BME280;66004;55.096;38.760;2023-06-01T07:44:32;99756.94;;;21.39;35.11
77079;BME280;66004;55.096;38.760;2023-06-01T07:46:58;99738.16;;;21.38;34.88
77079;BME280;66004;55.096;38.760;2023-06-01T07:49:24;99754.47;;;21.42;35.10
77079;BME280;66004;55.096;38.760;2023-06-01T07:51:49;99747.94;;;21.45;35.10
77079;BME280;66004;55.096;38.760;2023-06-01T07:54:17;99735.78;;;21.30;35.02
77079;BME280;66004;55.096;38.760;2023-06-01T07:56:43;99751.63;;;21.45;34.73
77079;BME280;66004;55.096;38.760;2023-06-01T07:59:09;99751.56;;;21.52;34.41
77079;BME280;66004;55.096;38.760;2023-06-01T08:01:34;99747.88;;;21.52;34.38
77079;BME280;66004;55.096;38.760;2023-06-01T08:04:00;99749.88;;;21.58;35.32
77079;BME280;66004;55.096;38.760;2023-06-01T08:06:27;99744.50;;;21.64;35.35
77079;BME280;66004;55.096;38.760;2023-06-01T08:08:53;99737.88;;;21.74;35.36
77079;BME280;66004;55.096;38.760;2023-06-01T08:11:19;99738.63;;;21.78;35.09
77079;BME280;66004;55.096;38.760;2023-06-01T08:13:47;99735.00;;;21.74;34.71
77079;BME280;66004;55.096;38.760;2023-06-01T08:16:12;99735.78;;;21.78;35.01
77079;BME280;66004;55.096;38.760;2023-06-01T08:18:38;99735.38;;;21.76;35.10
77079;BME280;66004;55.096;38.760;2023-06-01T08:21:04;99722.41;;;21.68;35.16
77079;BME280;66004;55.096;38.760;2023-06-01T08:23:30;99737.22;;;21.56;34.72
77079;BME280;66004;55.096;38.760;2023-06-01T08:25:56;99729.94;;;21.48;34.97
77079;BME280;66004;55.096;38.760;2023-06-01T08:28:21;99729.06;;;21.51;34.97
77079;BME280;66004;55.096;38.760;2023-06-01T08:30:47;99726.69;;;21.46;34.82
77079;BME280;66004;55.096;38.760;2023-06-01T08:33:12;99712.81;;;21.41;35.38
77079;BME280;66004;55.096;38.760;2023-06-01T08:35:38;99724.16;;;21.55;35.28
77079;BME280;66004;55.096;38.760;2023-06-01T08:38:04;99726.94;;;21.62;35.51
77079;BME280;66004;55.096;38.760;2023-06-01T08:40:30;99711.00;;;21.61;35.32
77079;BME280;66004;55.096;38.760;2023-06-01T08:45:36;99708.59;;;21.56;34.77
77079;BME280;66004;55.096;38.760;2023-06-01T08:48:04;99702.09;;;21.52;35.03
